Time;durP1;ratioP1;P1;durP2;ratioP2;P2;SDS_P1;SDS_P2;PMS_P1;PMS_P2;Temp;Humidity;BMP_temperature;BMP_pressure;BME280_temperature;BME280_humidity;BME280_pressure;Samples;Min_cycle;Max_cycle;Signal;HPM_P1;HPM_P2
2023/04/30 00:04:30;;;;;;;14.80;9.00;;;;;;;4.89;100.00;102069.91;10520039;28;20553;-76
2023/04/30 00:09:31;;;;;;;17.73;11.13;;;;;;;4.82;100.00;102068.47;10490312;28;20040;-76
2023/04/30 00:14:32;;;;;;;17.95;10.90;;;;;;;4.80;100.00;102066.47;10525748;28;20563;-77
2023/04/30 00:19:32;;;;;;;18.90;12.43;;;;;;;4.79;100.00;102067.25;10489484;28;20036;-76
2023/04/30 00:24:33;;;;;;;16.38;11.05;;;;;;;4.74;100.00;102071.13;10502497;28;20127;-76
2023/04/30 00:29:34;;;;;;;23.40;11.80;;;;;;;4.66;100.00;102078.22;10519250;28;20043;-76
2023/04/30 00:34:34;;;;;;;16.35;11.52;;;;;;;4.52;100.00;102076.94;10523427;28;20123;-77
2023/04/30 00:39:35;;;;;;;19.23;12.65;;;;;;;4.38;100.00;102074.00;10516263;28;20621;-76
2023/04/30 00:44:35;;;;;;;24.20;15.45;;;;;;;4.36;100.00;102080.72;10518685;28;20044;-76
2023/04/30 00:49:36;;;;;;;16.85;12.13;;;;;;;4.22;100.00;102078.53;10522099;28;20051;-75
2023/04/30 00:54:37;;;;;;;23.58;13.23;;;;;;;4.21;100.00;102079.28;10496634;28;20044;-75
2023/04/30 00:59:37;;;;;;;22.00;14.70;;;;;;;4.12;100.00;102084.56;10521033;28;20063;-74
2023/04/30 01:04:38;;;;;;;25.90;16.25;;;;;;;4.11;100.00;102074.94;10523657;28;20059;-75
2023/04/30 01:09:38;;;;;;;21.13;15.10;;;;;;;4.03;100.00;102073.31;10522206;28;20051;-74
2023/04/30 01:15:03;;;;;;;17.88;13.48;;;;;;;3.85;100.00;102075.09;10487391;28;20078;-74
2023/04/30 01:20:04;;;;;;;35.83;17.10;;;;;;;3.82;100.00;102058.50;10529751;28;20380;-75
2023/04/30 01:25:34;;;;;;;24.15;16.10;;;;;;;3.79;100.00;102057.31;10505969;28;20032;-75
2023/04/30 01:30:35;;;;;;;24.02;16.20;;;;;;;3.73;100.00;102059.31;10531196;28;20060;-75
2023/04/30 01:36:08;;;;;;;26.08;19.45;;;;;;;3.71;100.00;102060.84;10511202;28;20044;-75
2023/04/30 01:41:20;;;;;;;26.83;18.65;;;;;;;3.67;100.00;102057.03;10505404;28;20055;-74
2023/04/30 01:46:24;;;;;;;27.38;18.02;;;;;;;3.55;100.00;102067.16;10522872;28;20036;-75
2023/04/30 01:51:31;;;;;;;36.00;24.48;;;;;;;3.63;100.00;102073.06;10506512;28;20036;-74
2023/04/30 01:56:37;;;;;;;33.85;22.45;;;;;;;3.55;100.00;102066.25;10527018;28;20388;-75
2023/04/30 02:01:37;;;;;;;37.78;25.42;;;;;;;3.66;100.00;102068.16;10510908;28;20040;-74
2023/04/30 02:06:38;;;;;;;37.10;27.17;;;;;;;3.74;100.00;102058.56;10529669;28;20527;-74
2023/04/30 02:11:38;;;;;;;34.47;26.83;;;;;;;3.80;100.00;102062.63;10511327;28;20071;-74
2023/04/30 02:16:39;;;;;;;39.70;26.95;;;;;;;3.73;100.00;102078.34;10528391;28;20124;-75
2023/04/30 02:21:39;;;;;;;38.90;25.80;;;;;;;3.65;100.00;102068.94;10528330;28;20128;-75
2023/04/30 02:26:40;;;;;;;53.50;33.45;;;;;;;3.61;100.00;102069.41;10526393;28;20518;-76
2023/04/30 02:31:40;;;;;;;45.50;29.20;;;;;;;3.61;100.00;102069.41;10513309;28;20032;-75
2023/04/30 02:36:41;;;;;;;42.40;30.33;;;;;;;3.53;100.00;102068.69;10526106;28;20118;-76
2023/04/30 02:41:41;;;;;;;54.15;32.72;;;;;;;3.43;100.00;102058.22;10522191;28;20119;-75
2023/04/30 02:46:41;;;;;;;44.92;30.67;;;;;;;3.32;100.00;102059.78;10517158;28;20036;-75
2023/04/30 02:51:42;;;;;;;54.78;34.72;;;;;;;3.33;100.00;102059.00;10507708;28;20131;-75
2023/04/30 02:56:43;;;;;;;37.33;25.42;;;;;;;3.27;100.00;102067.09;10507025;28;20127;-75
2023/04/30 03:01:44;;;;;;;36.95;24.42;;;;;;;3.16;100.00;102058.28;10519524;28;20089;-76
2023/04/30 03:06:44;;;;;;;56.53;33.00;;;;;;;3.04;100.00;102062.28;10488704;28;20498;-76
2023/04/30 03:11:45;;;;;;;47.08;33.00;;;;;;;3.02;100.00;102051.81;10505040;28;20036;-77
2023/04/30 03:16:45;;;;;;;55.13;33.97;;;;;;;2.99;100.00;102061.84;10490708;28;20144;-75
2023/04/30 03:21:47;;;;;;;40.10;30.45;;;;;;;2.85;100.00;102050.13;10490462;28;20047;-77
2023/04/30 03:26:47;;;;;;;58.80;39.20;;;;;;;2.82;100.00;102051.53;10522529;28;20111;-77
2023/04/30 03:31:48;;;;;;;50.50;38.60;;;;;;;2.70;100.00;102054.75;10502431;28;20040;-78
2023/04/30 03:36:48;;;;;;;57.15;38.45;;;;;;;2.60;100.00;102060.66;10509188;28;20131;-75
2023/04/30 03:41:49;;;;;;;62.55;40.72;;;;;;;2.50;100.00;102050.16;10521431;28;20197;-75
2023/04/30 03:46:49;;;;;;;46.45;33.50;;;;;;;2.47;100.00;102055.97;10505977;28;20128;-76
2023/04/30 03:51:50;;;;;;;53.67;34.00;;;;;;;2.53;100.00;102053.06;10503645;28;20075;-76
2023/04/30 03:56:50;;;;;;;62.38;39.85;;;;;;;2.60;100.00;102059.75;10523349;28;20094;-77
2023/04/30 04:01:51;;;;;;;62.63;40.35;;;;;;;2.65;100.00;102061.13;10505863;28;20140;-77
2023/04/30 04:06:51;;;;;;;54.30;39.85;;;;;;;2.54;100.00;102060.06;10486179;28;20071;-75
2023/04/30 04:11:52;;;;;;;59.08;40.17;;;;;;;2.45;100.00;102052.31;10500395;28;20174;-76
2023/04/30 04:16:52;;;;;;;81.03;49.28;;;;;;;2.37;100.00;102060.03;10500091;28;20127;-76
2023/04/30 04:21:53;;;;;;;70.18;44.10;;;;;;;2.38;100.00;102051.53;10522835;28;20056;-76
2023/04/30 04:26:54;;;;;;;85.40;54.25;;;;;;;2.42;100.00;102057.19;10499920;28;20043;-76
2023/04/30 04:31:54;;;;;;;91.75;59.50;;;;;;;2.51;100.00;102056.25;10504767;28;20036;-76
2023/04/30 04:36:55;;;;;;;99.93;63.22;;;;;;;2.52;100.00;102066.75;10511978;28;20760;-75
2023/04/30 04:41:55;;;;;;;69.38;44.78;;;;;;;2.76;100.00;102077.69;10520692;28;20040;-75
2023/04/30 04:46:56;;;;;;;69.07;43.90;;;;;;;2.88;100.00;102072.81;10505585;28;20075;-76
2023/04/30 04:51:57;;;;;;;59.77;44.60;;;;;;;2.85;100.00;102085.44;10521215;28;20105;-76
2023/04/30 04:56:58;;;;;;;59.53;39.97;;;;;;;2.86;100.00;102106.28;10522801;28;20129;-76
2023/04/30 05:01:58;;;;;;;65.00;42.47;;;;;;;2.94;100.00;102107.94;10510383;28;20044;-77
2023/04/30 05:06:59;;;;;;;61.10;45.95;;;;;;;3.08;100.00;102106.72;10500775;28;20123;-76
2023/04/30 05:11:59;;;;;;;61.33;43.55;;;;;;;3.23;100.00;102112.47;10523493;28;20527;-76
2023/04/30 05:17:00;;;;;;;72.47;44.83;;;;;;;3.40;100.00;102108.00;10530889;28;20135;-77
2023/04/30 05:22:00;;;;;;;63.50;41.58;;;;;;;3.57;100.00;102109.66;10507479;28;20051;-77
2023/04/30 05:27:04;;;;;;;73.30;41.28;;;;;;;3.75;100.00;102101.81;10528646;28;20535;-76
2023/04/30 05:32:04;;;;;;;66.80;40.25;;;;;;;4.21;100.00;102102.63;10524294;28;20043;-75
2023/04/30 05:37:05;;;;;;;59.75;38.10;;;;;;;4.61;100.00;102097.63;10517037;28;20115;-77
2023/04/30 05:42:05;;;;;;;50.00;34.25;;;;;;;6.13;100.00;102097.97;10524479;28;20119;-76
2023/04/30 05:47:06;;;;;;;31.85;22.00;;;;;;;8.29;100.00;102095.31;10518804;28;20446;-77
2023/04/30 05:52:06;;;;;;;17.83;12.07;;;;;;;9.64;100.00;102097.34;10505283;28;20115;-77
2023/04/30 05:57:07;;;;;;;30.17;11.05;;;;;;;11.09;100.00;102087.06;10500760;28;20127;-79
2023/04/30 06:02:08;;;;;;;14.88;10.07;;;;;;;12.75;100.00;102055.22;10507561;28;20119;-76
2023/04/30 06:07:08;;;;;;;13.30;9.30;;;;;;;13.57;100.00;102079.94;10526726;28;20039;-76
2023/04/30 06:12:09;;;;;;;12.98;9.70;;;;;;;14.42;100.00;102077.31;10525938;28;20131;-77
2023/04/30 06:17:09;;;;;;;14.40;10.27;;;;;;;14.89;100.00;102086.75;10526450;28;20044;-76
2023/04/30 06:22:10;;;;;;;15.70;11.30;;;;;;;16.00;100.00;102079.63;10504584;28;20062;-76
2023/04/30 06:27:10;;;;;;;14.90;9.63;;;;;;;15.89;100.00;102072.94;10515595;28;20058;-77
2023/04/30 06:32:11;;;;;;;17.13;10.37;;;;;;;16.09;95.05;102065.94;10498496;28;20068;-77
2023/04/30 06:37:11;;;;;;;14.50;9.83;;;;;;;16.38;99.68;102077.75;10504362;28;20064;-77
2023/04/30 06:42:12;;;;;;;14.50;9.80;;;;;;;17.16;90.03;102083.63;10525883;28;20139;-76
2023/04/30 06:47:12;;;;;;;13.57;9.77;;;;;;;16.65;88.97;102085.06;10521316;28;20468;-78
2023/04/30 06:52:13;;;;;;;12.50;8.43;;;;;;;17.39;85.68;102083.63;10506547;28;20068;-76
2023/04/30 06:57:13;;;;;;;14.97;10.77;;;;;;;17.87;83.93;102081.03;10518063;28;20101;-75
2023/04/30 07:02:14;;;;;;;14.83;9.23;;;;;;;18.54;76.87;102069.25;10504872;28;20067;-76
2023/04/30 07:07:15;;;;;;;14.40;9.50;;;;;;;18.62;75.96;102075.72;10499337;28;20887;-78
2023/04/30 07:12:15;;;;;;;17.47;11.73;;;;;;;18.72;75.12;102069.88;10509326;28;20044;-76
2023/04/30 07:17:16;;;;;;;12.80;9.60;;;;;;;19.36;73.32;102059.53;10494275;28;20123;-75
2023/04/30 07:22:16;;;;;;;11.10;8.57;;;;;;;20.18;67.60;102066.31;10489470;28;20143;-75
2023/04/30 07:27:17;;;;;;;12.13;8.47;;;;;;;20.01;68.32;102052.56;10507089;28;20072;-76
2023/04/30 07:32:17;;;;;;;15.80;9.07;;;;;;;19.69;68.13;102056.94;10518107;28;20120;-75
2023/04/30 07:37:18;;;;;;;12.27;8.50;;;;;;;19.94;66.39;102056.81;10522717;28;20051;-73
2023/04/30 07:42:19;;;;;;;13.60;9.70;;;;;;;20.72;63.14;102053.50;10517663;28;20096;-73
2023/04/30 07:47:19;;;;;;;13.17;10.07;;;;;;;21.04;68.43;102045.41;10508613;28;20123;-73
2023/04/30 07:52:20;;;;;;;13.93;10.10;;;;;;;21.57;62.52;102049.22;10503718;28;20071;-72
2023/04/30 07:57:20;;;;;;;14.07;11.07;;;;;;;21.72;59.34;102054.00;10522067;28;20063;-73
2023/04/30 08:02:21;;;;;;;12.03;9.37;;;;;;;21.35;62.12;102056.75;10495423;28;20399;-72
2023/04/30 08:07:21;;;;;;;13.97;9.07;;;;;;;22.00;59.39;102051.88;10503380;28;20131;-73
2023/04/30 08:12:22;;;;;;;14.47;10.10;;;;;;;22.86;56.30;102060.50;10496691;28;20079;-73
2023/04/30 08:17:22;;;;;;;15.43;9.10;;;;;;;22.53;56.81;102058.19;10519647;28;20113;-73
2023/04/30 08:22:23;;;;;;;15.67;10.47;;;;;;;22.67;58.99;102066.41;10521918;28;20064;-73
2023/04/30 08:27:23;;;;;;;12.90;9.20;;;;;;;23.20;56.31;102069.88;10504586;28;20043;-73
2023/04/30 08:32:24;;;;;;;16.43;8.00;;;;;;;23.24;58.52;102069.06;10517745;28;20488;-72
2023/04/30 08:37:24;;;;;;;11.87;8.03;;;;;;;23.15;55.43;102070.72;10511901;28;20051;-74
2023/04/30 08:42:30;;;;;;;9.27;7.43;;;;;;;23.44;52.17;102070.25;10506842;28;20048;-74
2023/04/30 08:47:30;;;;;;;15.60;7.82;;;;;;;23.38;53.39;102051.47;10482892;28;20049;-75
2023/04/30 08:52:31;;;;;;;12.67;7.33;;;;;;;23.33;52.01;102054.97;10502127;28;20119;-73
2023/04/30 08:57:31;;;;;;;11.43;6.97;;;;;;;23.38;50.65;102054.13;10516643;28;20111;-72
2023/04/30 09:02:33;;;;;;;8.03;4.93;;;;;;;23.33;54.22;102050.50;10523599;28;20459;-73
2023/04/30 09:07:33;;;;;;;10.13;5.90;;;;;;;22.82;50.43;102050.63;10500667;28;20182;-73
2023/04/30 09:12:35;;;;;;;7.60;5.17;;;;;;;23.46;52.92;102039.09;10505987;28;20076;-74
2023/04/30 09:17:35;;;;;;;10.95;6.95;;;;;;;24.01;50.04;102043.31;10513974;28;20072;-73
2023/04/30 09:22:36;;;;;;;8.20;6.87;;;;;;;24.75;48.51;102047.56;10522543;28;20052;-75
2023/04/30 09:27:37;;;;;;;7.85;6.18;;;;;;;24.50;47.19;102036.63;10504965;28;20503;-74
2023/04/30 09:32:53;;;;;;;9.00;6.33;;;;;;;24.37;45.41;102032.06;10523006;28;20061;-73
2023/04/30 09:37:54;;;;;;;65.93;51.08;;;;;;;24.48;49.09;102031.28;10528514;28;20356;-73
2023/04/30 09:42:58;;;;;;;8.93;5.93;;;;;;;24.55;44.58;102029.53;10528605;28;20055;-73
2023/04/30 09:47:59;;;;;;;6.15;4.13;;;;;;;24.95;45.11;102028.06;10514045;28;20041;-73
2023/04/30 09:53:09;;;;;;;6.50;4.23;;;;;;;25.29;42.18;102031.84;10523523;28;20035;-74
2023/04/30 09:58:10;;;;;;;7.32;4.85;;;;;;;24.75;43.44;102031.50;10485777;28;20301;-73
2023/04/30 10:03:11;;;;;;;8.27;4.87;;;;;;;24.91;44.40;102028.03;10520725;28;20044;-75
2023/04/30 10:08:25;;;;;;;6.60;3.20;;;;;;;25.00;41.28;102027.22;10514110;28;20070;-75
2023/04/30 10:13:30;;;;;;;5.65;4.18;;;;;;;24.82;45.95;102022.63;10522039;28;20547;-75
2023/04/30 10:18:33;;;;;;;9.82;5.20;;;;;;;25.04;44.35;102014.72;10510923;28;20124;-76
2023/04/30 10:23:34;;;;;;;12.07;4.38;;;;;;;25.36;43.66;102017.59;10510963;28;20043;-74
2023/04/30 10:28:34;;;;;;;6.30;4.10;;;;;;;24.66;47.21;102008.22;10496282;28;20131;-75
2023/04/30 10:33:53;;;;;;;6.10;3.63;;;;;;;24.21;42.91;102002.50;10506948;28;20167;-74
2023/04/30 10:38:54;;;;;;;5.68;4.10;;;;;;;23.74;45.11;101994.00;10505695;28;20051;-75
2023/04/30 10:43:57;;;;;;;5.83;3.57;;;;;;;23.72;46.22;101989.53;10509699;28;20119;-75
2023/04/30 10:48:59;;;;;;;7.55;3.58;;;;;;;23.63;45.55;101986.78;10507778;28;20184;-74
2023/04/30 10:53:59;;;;;;;;;;;;;;;23.87;49.62;101970.06;10527869;28;20044;-74
2023/04/30 10:59:01;;;;;;;6.23;3.33;;;;;;;24.53;44.78;101958.19;10525074;28;20373;-75
2023/04/30 11:04:05;;;;;;;;;;;;;;;22.84;45.13;101963.50;10503084;28;20829;-75
2023/04/30 11:09:09;;;;;;;7.25;3.58;;;;;;;24.12;46.06;101948.94;10527556;28;19919;-74
2023/04/30 11:14:10;;;;;;;6.68;3.90;;;;;;;24.29;43.23;101955.31;10519906;28;20581;-74
2023/04/30 11:19:12;;;;;;;10.13;3.33;;;;;;;24.02;44.23;101946.19;10507902;28;20035;-74
2023/04/30 11:24:13;;;;;;;4.50;3.03;;;;;;;23.83;47.27;101941.53;10524157;28;20047;-74
2023/04/30 11:29:13;;;;;;;6.80;4.57;;;;;;;21.63;46.93;101944.59;10525436;28;20131;-76
2023/04/30 11:34:14;;;;;;;7.53;3.33;;;;;;;20.70;49.89;101935.53;10506992;28;20072;-77
2023/04/30 11:39:16;;;;;;;6.70;3.03;;;;;;;21.54;56.96;101930.22;10509248;28;20498;-75
2023/04/30 11:44:26;;;;;;;7.15;4.05;;;;;;;23.14;47.67;101923.84;10503746;28;20040;-77
2023/04/30 11:49:26;;;;;;;7.70;4.78;;;;;;;24.27;48.22;101922.31;10491335;28;20043;-77
2023/04/30 11:54:31;;;;;;;5.50;3.00;;;;;;;25.33;43.39;101913.09;10476967;28;20495;-76
2023/04/30 11:59:31;;;;;;;2.85;1.50;;;;;;;24.38;42.56;101919.75;10482519;28;20052;-82
2023/04/30 12:04:33;;;;;;;2.97;1.77;;;;;;;23.22;44.00;101907.91;10466155;28;20036;-78
2023/04/30 12:09:52;;;;;;;4.85;2.88;;;;;;;23.00;45.80;101904.97;10484063;28;20044;-81
2023/04/30 12:14:53;;;;;;;4.70;2.25;;;;;;;23.70;44.89;101900.44;10472530;28;20089;-78
2023/04/30 12:19:54;;;;;;;4.97;2.67;;;;;;;24.19;42.35;101906.25;10524177;28;20072;-77
2023/04/30 12:24:55;;;;;;;3.45;2.15;;;;;;;23.40;45.00;101896.59;10506021;28;20101;-79
2023/04/30 12:29:56;;;;;;;4.67;3.30;;;;;;;24.03;42.13;101891.84;10524230;28;20043;-76
2023/04/30 12:35:00;;;;;;;4.67;3.43;;;;;;;24.01;45.13;101895.41;10524175;28;20111;-76
2023/04/30 12:40:01;;;;;;;6.15;3.75;;;;;;;23.26;45.96;101878.63;10523928;28;20543;-77
2023/04/30 12:45:02;;;;;;;4.97;3.40;;;;;;;23.66;49.55;101878.13;10489554;28;20036;-77
2023/04/30 12:50:11;;;;;;;6.03;4.35;;;;;;;24.55;44.12;101870.78;10482716;28;20032;-77
2023/04/30 12:55:19;;;;;;;6.43;3.83;;;;;;;23.69;44.12;101877.28;10492952;28;20454;-76
2023/04/30 13:00:21;;;;;;;6.63;3.78;;;;;;;23.06;45.54;101858.78;10523008;28;20037;-76
2023/04/30 13:05:22;;;;;;;4.43;3.92;;;;;;;23.84;43.63;101856.03;10474618;28;20044;-77
2023/04/30 13:10:24;;;;;;;6.10;3.73;;;;;;;23.50;43.79;101855.72;10467491;28;20040;-76
2023/04/30 13:15:24;;;;;;;4.93;3.22;;;;;;;22.67;46.58;101842.28;10505658;28;20118;-78
2023/04/30 13:20:26;;;;;;;5.37;3.27;;;;;;;23.11;44.70;101841.94;10491686;28;20555;-78
2023/04/30 13:25:26;;;;;;;4.05;3.08;;;;;;;24.09;43.08;101831.28;10506856;28;20094;-76
2023/04/30 13:30:27;;;;;;;6.77;3.47;;;;;;;24.46;41.73;101815.44;10524836;28;20038;-78
2023/04/30 13:35:28;;;;;;;4.70;3.60;;;;;;;23.29;44.44;101824.34;10512327;28;20032;-77
2023/04/30 13:40:29;;;;;;;5.17;3.80;;;;;;;22.61;48.41;101819.13;10531205;28;20035;-78
2023/04/30 13:45:29;;;;;;;6.00;3.03;;;;;;;23.21;45.07;101812.66;10530275;28;20037;-82
2023/04/30 13:50:30;;;;;;;7.07;2.90;;;;;;;23.38;44.17;101820.88;10529766;28;20065;-77
2023/04/30 13:55:31;;;;;;;4.10;3.27;;;;;;;22.44;44.54;101806.47;10526944;28;20127;-78
2023/04/30 14:00:32;;;;;;;4.63;2.88;;;;;;;22.17;45.33;101809.59;10531829;28;20147;-82
2023/04/30 14:05:32;;;;;;;4.63;3.07;;;;;;;22.84;44.18;101794.50;10528258;28;20490;-81
2023/04/30 14:10:33;;;;;;;6.20;3.03;;;;;;;23.22;46.47;101786.00;10511108;28;20059;-81
2023/04/30 14:15:34;;;;;;;5.33;2.70;;;;;;;23.34;43.92;101779.00;10528466;28;20055;-80
2023/04/30 14:20:34;;;;;;;4.90;3.77;;;;;;;22.84;45.23;101786.47;10526717;28;20040;-80
2023/04/30 14:25:35;;;;;;;4.57;3.33;;;;;;;22.02;44.50;101780.94;10527992;28;20362;-79
2023/04/30 14:30:36;;;;;;;5.83;3.17;;;;;;;21.42;46.03;101783.53;10513680;28;20178;-74
2023/04/30 14:35:36;;;;;;;3.80;2.90;;;;;;;21.00;47.32;101774.78;10529943;28;20032;-77
2023/04/30 14:40:37;;;;;;;3.90;2.80;;;;;;;21.64;47.96;101771.47;10493715;28;20052;-78
2023/04/30 14:45:38;;;;;;;6.00;3.67;;;;;;;21.55;48.18;101787.28;10504142;28;20444;-77
2023/04/30 14:50:39;;;;;;;4.18;3.00;;;;;;;19.58;48.83;101772.53;10526972;28;20097;-78
2023/04/30 14:55:39;;;;;;;5.28;3.53;;;;;;;19.34;50.89;101765.75;10528224;28;20122;-76
2023/04/30 15:00:40;;;;;;;5.13;2.70;;;;;;;20.75;50.16;101742.34;10528342;28;20036;-76
2023/04/30 15:05:41;;;;;;;3.92;2.83;;;;;;;21.85;48.45;101740.72;10519998;28;20036;-76
2023/04/30 15:10:41;;;;;;;5.17;2.30;;;;;;;21.51;48.05;101742.81;10524900;28;20033;-76
2023/04/30 15:15:42;;;;;;;4.30;2.53;;;;;;;20.55;50.21;101734.00;10503970;28;20126;-76
2023/04/30 15:20:42;;;;;;;4.17;2.50;;;;;;;20.37;51.41;101730.09;10523612;28;20063;-77
2023/04/30 15:25:43;;;;;;;8.50;3.63;;;;;;;20.21;51.91;101717.34;10502898;28;20119;-78
2023/04/30 15:30:43;;;;;;;3.80;2.28;;;;;;;19.77;50.86;101715.44;10515649;28;20098;-75
2023/04/30 15:35:46;;;;;;;3.42;2.67;;;;;;;19.15;52.87;101712.19;10500691;28;20068;-76
2023/04/30 15:40:47;;;;;;;2.75;1.80;;;;;;;18.70;55.47;101710.97;10505866;28;20487;-76
2023/04/30 15:45:48;;;;;;;5.43;3.20;;;;;;;18.31;54.14;101709.91;10504600;28;20047;-76
2023/04/30 15:50:49;;;;;;;3.10;2.20;;;;;;;18.03;55.28;101705.50;10505949;28;20036;-77
2023/04/30 15:55:49;;;;;;;4.50;1.83;;;;;;;17.90;55.16;101710.41;10488911;28;20043;-77
2023/04/30 16:00:50;;;;;;;5.32;1.83;;;;;;;17.86;57.17;101686.44;10504289;28;20036;-76
2023/04/30 16:05:50;;;;;;;3.63;2.08;;;;;;;17.90;56.09;101681.28;10505634;28;20135;-78
2023/04/30 16:10:51;;;;;;;5.57;2.15;;;;;;;17.89;56.54;101689.19;10484906;28;20506;-77
2023/04/30 16:15:51;;;;;;;12.15;2.35;;;;;;;17.60;56.22;101690.06;10485421;28;20036;-77
2023/04/30 16:20:52;;;;;;;3.35;2.00;;;;;;;17.43;57.88;101685.97;10507528;28;20399;-77
2023/04/30 16:25:53;;;;;;;6.93;2.20;;;;;;;17.40;59.90;101683.22;10499657;28;20127;-77
2023/04/30 16:30:54;;;;;;;2.30;1.65;;;;;;;17.12;59.20;101688.53;10512970;28;20040;-80
2023/04/30 16:35:55;;;;;;;3.15;2.38;;;;;;;16.97;61.37;101688.00;10485490;28;20087;-77
2023/04/30 16:40:55;;;;;;;6.05;1.88;;;;;;;16.96;62.13;101679.13;10492615;28;20043;-78
2023/04/30 16:45:56;;;;;;;5.88;2.50;;;;;;;16.94;62.10;101680.81;10510428;28;20120;-77
2023/04/30 16:50:56;;;;;;;3.30;1.90;;;;;;;16.96;61.39;101675.59;10530079;28;20060;-77
2023/04/30 16:55:57;;;;;;;5.43;2.45;;;;;;;16.76;62.18;101675.78;10530331;28;20559;-77
2023/04/30 17:00:57;;;;;;;3.10;1.52;;;;;;;16.64;64.33;101670.06;10529491;28;20060;-77
2023/04/30 17:05:58;;;;;;;4.47;1.83;;;;;;;16.56;64.30;101667.16;10512555;28;20071;-78
2023/04/30 17:10:58;;;;;;;21.40;2.55;;;;;;;16.28;65.97;101653.84;10531080;28;20111;-76
2023/04/30 17:15:59;;;;;;;4.03;2.00;;;;;;;16.14;66.30;101650.69;10512634;28;20081;-77
2023/04/30 17:21:00;;;;;;;4.50;2.00;;;;;;;15.94;70.09;101649.03;10507935;28;20495;-77
2023/04/30 17:26:00;;;;;;;3.20;1.65;;;;;;;15.86;68.55;101640.81;10512959;28;20111;-77
2023/04/30 17:31:05;;;;;;;6.43;2.47;;;;;;;15.70;68.97;101648.13;10521294;28;20128;-77
2023/04/30 17:36:07;;;;;;;3.72;2.20;;;;;;;15.52;73.39;101643.00;10512603;28;20090;-77
2023/04/30 17:41:07;;;;;;;5.93;2.33;;;;;;;15.34;73.99;101659.00;10486199;28;20105;-77
2023/04/30 17:46:08;;;;;;;5.72;2.13;;;;;;;15.23;76.79;101655.91;10529567;28;20125;-77
2023/04/30 17:51:09;;;;;;;3.40;2.03;;;;;;;15.10;78.22;101651.91;10530307;28;20024;-77
2023/04/30 17:56:09;;;;;;;2.92;2.10;;;;;;;15.05;80.42;101650.81;10527629;28;20127;-78
2023/04/30 18:01:09;;;;;;;6.82;2.38;;;;;;;14.81;83.75;101641.03;10529523;28;20090;-77
2023/04/30 18:06:10;;;;;;;5.07;2.15;;;;;;;14.54;87.01;101644.22;10516416;28;20074;-76
2023/04/30 18:11:11;;;;;;;2.22;1.98;;;;;;;14.34;87.04;101635.44;10526774;28;20040;-76
2023/04/30 18:16:12;;;;;;;3.55;2.22;;;;;;;13.93;93.23;101644.97;10527847;28;20070;-76
2023/04/30 18:21:26;;;;;;;3.47;2.85;;;;;;;13.67;99.01;101644.66;10527531;28;20670;-77
2023/04/30 18:26:54;;;;;;;17.65;11.50;;;;;;;13.27;100.00;101646.25;10510424;28;20043;-75
2023/04/30 18:31:56;;;;;;;7.70;3.80;;;;;;;12.85;100.00;101638.91;10499282;28;20625;-77
2023/04/30 18:36:56;;;;;;;19.67;12.05;;;;;;;12.47;100.00;101627.34;10529242;28;20032;-75
2023/04/30 18:41:57;;;;;;;12.70;4.57;;;;;;;12.10;100.00;101620.16;10525716;28;20123;-80
2023/04/30 18:46:58;;;;;;;6.82;2.20;;;;;;;11.85;100.00;101624.03;10501426;28;20434;-76
2023/04/30 18:51:59;;;;;;;4.13;1.52;;;;;;;11.54;100.00;101614.50;10469025;28;20110;-77
2023/04/30 18:57:00;;;;;;;7.35;1.85;;;;;;;11.29;100.00;101620.97;10514709;28;20029;-77
2023/04/30 19:02:00;;;;;;;3.97;1.75;;;;;;;11.06;100.00;101622.28;10527390;28;20439;-76
2023/04/30 19:07:01;;;;;;;4.03;1.70;;;;;;;11.04;100.00;101618.69;10511247;28;20117;-77
2023/04/30 19:12:02;;;;;;;3.15;2.45;;;;;;;10.87;100.00;101623.84;10526721;28;20028;-76
2023/04/30 19:17:04;;;;;;;3.63;1.45;;;;;;;10.69;100.00;101628.88;10525752;28;20513;-76
2023/04/30 19:22:05;;;;;;;1.55;1.00;;;;;;;10.63;100.00;101633.75;10520976;28;20044;-76
2023/04/30 19:27:05;;;;;;;4.65;1.63;;;;;;;10.49;100.00;101632.94;10513998;28;20120;-76
2023/04/30 19:32:06;;;;;;;5.32;2.15;;;;;;;10.33;100.00;101631.06;10503618;28;20568;-76
2023/04/30 19:37:06;;;;;;;4.93;1.50;;;;;;;10.23;100.00;101634.84;10527010;28;20115;-77
2023/04/30 19:42:07;;;;;;;4.38;1.33;;;;;;;10.17;100.00;101634.47;10523757;28;20119;-77
2023/04/30 19:47:08;;;;;;;2.72;1.55;;;;;;;10.24;100.00;101637.53;10524833;28;20043;-76
2023/04/30 19:52:08;;;;;;;2.13;1.23;;;;;;;10.12;100.00;101642.00;10508439;28;20153;-78
2023/04/30 19:57:09;;;;;;;7.28;1.88;;;;;;;10.07;100.00;101638.22;10526940;28;20068;-78
2023/04/30 20:02:09;;;;;;;2.78;1.60;;;;;;;10.01;100.00;101635.22;10520458;28;20063;-78
2023/04/30 20:07:10;;;;;;;2.60;1.10;;;;;;;10.01;100.00;101640.44;10522346;28;20067;-77
2023/04/30 20:12:10;;;;;;;1.80;1.13;;;;;;;9.92;100.00;101632.94;10524112;28;20175;-78
2023/04/30 20:17:13;;;;;;;5.20;1.85;;;;;;;9.74;100.00;101628.38;10521000;28;20119;-78
2023/04/30 20:22:13;;;;;;;2.80;1.15;;;;;;;9.62;100.00;101628.47;10521095;28;20032;-78
2023/04/30 20:27:14;;;;;;;4.05;1.83;;;;;;;9.49;100.00;101628.50;10524153;28;20052;-78
2023/04/30 20:32:14;;;;;;;3.35;1.48;;;;;;;9.46;100.00;101629.22;10524640;28;20059;-77
2023/04/30 20:37:15;;;;;;;4.80;1.88;;;;;;;9.34;100.00;101624.09;10524206;28;20071;-76
2023/04/30 20:42:16;;;;;;;5.07;2.15;;;;;;;9.28;100.00;101623.69;10526328;28;20539;-77
2023/04/30 20:47:16;;;;;;;4.25;1.63;;;;;;;9.45;100.00;101621.25;10505604;28;20039;-77
2023/04/30 20:52:17;;;;;;;4.28;1.65;;;;;;;9.53;100.00;101634.03;10506955;28;20456;-76
2023/04/30 20:57:18;;;;;;;6.90;1.80;;;;;;;9.49;100.00;101626.81;10525352;28;20492;-77
2023/04/30 21:02:18;;;;;;;5.07;2.50;;;;;;;9.47;100.00;101619.66;10523757;28;20043;-77
2023/04/30 21:07:19;;;;;;;3.88;1.88;;;;;;;9.63;100.00;101613.72;10523556;28;20119;-75
2023/04/30 21:12:20;;;;;;;6.85;2.08;;;;;;;9.68;100.00;101612.28;10523464;28;20038;-77
2023/04/30 21:17:20;;;;;;;4.63;2.30;;;;;;;9.52;100.00;101607.78;10523424;28;20059;-76
2023/04/30 21:22:21;;;;;;;5.97;2.08;;;;;;;9.38;100.00;101601.69;10504904;28;20456;-77
2023/04/30 21:27:22;;;;;;;5.80;2.42;;;;;;;9.28;100.00;101604.50;10523040;28;20040;-76
2023/04/30 21:32:22;;;;;;;4.72;2.05;;;;;;;9.40;100.00;101593.13;10528172;28;20086;-77
2023/04/30 21:37:23;;;;;;;7.32;2.05;;;;;;;9.52;100.00;101590.41;10532763;28;20055;-77
2023/04/30 21:42:23;;;;;;;1.80;1.30;;;;;;;9.71;100.00;101586.34;10526400;28;20166;-76
2023/04/30 21:47:24;;;;;;;3.85;2.08;;;;;;;9.81;100.00;101586.13;10529816;28;20071;-77
2023/04/30 21:52:24;;;;;;;4.75;2.20;;;;;;;9.84;100.00;101578.47;10530466;28;20115;-77
2023/04/30 21:57:25;;;;;;;5.50;2.50;;;;;;;9.88;100.00;101579.53;10531079;28;20040;-77
2023/04/30 22:02:25;;;;;;;6.05;2.30;;;;;;;9.85;100.00;101566.28;10528848;28;20119;-77
2023/04/30 22:07:26;;;;;;;6.38;1.75;;;;;;;9.88;100.00;101562.97;10511730;28;20094;-77
2023/04/30 22:12:26;;;;;;;5.53;2.65;;;;;;;9.85;100.00;101566.28;10530130;28;20060;-77
2023/04/30 22:17:31;;;;;;;8.43;3.83;;;;;;;10.02;100.00;101562.09;10530969;28;20135;-76
2023/04/30 22:22:32;;;;;;;7.10;2.97;;;;;;;10.11;100.00;101553.88;10529839;28;20065;-76
2023/04/30 22:27:32;;;;;;;5.10;2.30;;;;;;;10.11;100.00;101544.34;10529300;28;20491;-76
2023/04/30 22:32:33;;;;;;;7.15;3.40;;;;;;;10.26;100.00;101539.13;10529767;28;20595;-77
2023/04/30 22:37:33;;;;;;;4.80;2.10;;;;;;;10.21;100.00;101539.66;10530133;28;20519;-76
2023/04/30 22:42:34;;;;;;;4.15;2.42;;;;;;;10.08;100.00;101538.94;10525891;28;20100;-76
2023/04/30 22:47:34;;;;;;;6.78;2.95;;;;;;;10.11;100.00;101538.19;10505380;28;20131;-76
2023/04/30 22:52:35;;;;;;;8.23;2.65;;;;;;;10.03;100.00;101537.75;10528046;28;20060;-76
2023/04/30 22:57:36;;;;;;;5.90;2.95;;;;;;;9.93;100.00;101535.38;10527389;28;20123;-76